sensor_id;sensor_type;location;lat;lon;timestamp;pressure;altitude;pressure_sealevel;temperature
68939;BMP180;59064;45.294;11.816;2024-02-21T00:01:56;102317.60;;;7.00
68939;BMP180;59064;45.294;11.816;2024-02-21T00:04:21;102313.20;;;7.00
68939;BMP180;59064;45.294;11.816;2024-02-21T00:06:47;102310.20;;;7.00
68939;BMP180;59064;45.294;11.816;2024-02-21T00:09:12;102311.40;;;7.10
68939;BMP180;59064;45.294;11.816;2024-02-21T00:11:38;102314.20;;;7.10
68939;BMP180;59064;45.294;11.816;2024-02-21T00:14:03;102312.60;;;7.10
68939;BMP180;59064;45.294;11.816;2024-02-21T00:16:29;102316.60;;;7.10
68939;BMP180;59064;45.294;11.816;2024-02-21T00:18:55;102309.20;;;7.14
68939;BMP180;59064;45.294;11.816;2024-02-21T00:21:20;102311.60;;;7.20
68939;BMP180;59064;45.294;11.816;2024-02-21T00:23:46;102324.00;;;7.28
68939;BMP180;59064;45.294;11.816;2024-02-21T00:26:12;102320.80;;;7.40
68939;BMP180;59064;45.294;11.816;2024-02-21T00:28:39;102317.00;;;7.50
68939;BMP180;59064;45.294;11.816;2024-02-21T00:31:04;102328.00;;;7.66
68939;BMP180;59064;45.294;11.816;2024-02-21T00:33:30;102324.40;;;7.78
68939;BMP180;59064;45.294;11.816;2024-02-21T00:35:56;102327.00;;;7.80
68939;BMP180;59064;45.294;11.816;2024-02-21T00:38:21;102322.80;;;7.80
68939;BMP180;59064;45.294;11.816;2024-02-21T00:40:47;102321.20;;;7.78
68939;BMP180;59064;45.294;11.816;2024-02-21T00:43:12;102324.00;;;7.70
68939;BMP180;59064;45.294;11.816;2024-02-21T00:45:38;102322.80;;;7.70
68939;BMP180;59064;45.294;11.816;2024-02-21T00:48:04;102323.20;;;7.60
68939;BMP180;59064;45.294;11.816;2024-02-21T00:50:29;102315.00;;;7.54
68939;BMP180;59064;45.294;11.816;2024-02-21T00:52:55;102318.60;;;7.50
68939;BMP180;59064;45.294;11.816;2024-02-21T00:55:20;102311.00;;;7.50
68939;BMP180;59064;45.294;11.816;2024-02-21T00:57:46;102315.00;;;7.40
68939;BMP180;59064;45.294;11.816;2024-02-21T01:00:12;102316.20;;;7.40
68939;BMP180;59064;45.294;11.816;2024-02-21T01:02:38;102310.60;;;7.40
68939;BMP180;59064;45.294;11.816;2024-02-21T01:05:03;102306.40;;;7.40
68939;BMP180;59064;45.294;11.816;2024-02-21T01:07:29;102310.20;;;7.40
68939;BMP180;59064;45.294;11.816;2024-02-21T01:09:54;102307.60;;;7.36
68939;BMP180;59064;45.294;11.816;2024-02-21T01:12:20;102306.00;;;7.40
68939;BMP180;59064;45.294;11.816;2024-02-21T01:14:45;102308.20;;;7.40
68939;BMP180;59064;45.294;11.816;2024-02-21T01:17:11;102298.00;;;7.40
68939;BMP180;59064;45.294;11.816;2024-02-21T01:19:37;102297.40;;;7.50
68939;BMP180;59064;45.294;11.816;2024-02-21T01:22:04;102294.20;;;7.48
68939;BMP180;59064;45.294;11.816;2024-02-21T01:24:29;102293.80;;;7.40
68939;BMP180;59064;45.294;11.816;2024-02-21T01:26:55;102294.80;;;7.42
68939;BMP180;59064;45.294;11.816;2024-02-21T01:29:20;102296.60;;;7.44
68939;BMP180;59064;45.294;11.816;2024-02-21T01:31:46;102293.00;;;7.40
68939;BMP180;59064;45.294;11.816;2024-02-21T01:34:13;102287.20;;;7.50
68939;BMP180;59064;45.294;11.816;2024-02-21T01:36:38;102284.80;;;7.50
68939;BMP180;59064;45.294;11.816;2024-02-21T01:39:04;102282.40;;;7.50
68939;BMP180;59064;45.294;11.816;2024-02-21T01:41:30;102283.00;;;7.40
68939;BMP180;59064;45.294;11.816;2024-02-21T01:43:56;102282.60;;;7.40
68939;BMP180;59064;45.294;11.816;2024-02-21T01:46:22;102273.80;;;7.30
68939;BMP180;59064;45.294;11.816;2024-02-21T01:48:48;102277.80;;;7.30
68939;BMP180;59064;45.294;11.816;2024-02-21T01:51:15;102276.60;;;7.20
68939;BMP180;59064;45.294;11.816;2024-02-21T01:53:43;102277.80;;;7.20
68939;BMP180;59064;45.294;11.816;2024-02-21T01:56:09;102274.00;;;7.20
68939;BMP180;59064;45.294;11.816;2024-02-21T01:58:36;102283.20;;;7.10
68939;BMP180;59064;45.294;11.816;2024-02-21T02:01:03;102274.80;;;7.08
68939;BMP180;59064;45.294;11.816;2024-02-21T02:03:29;102271.60;;;7.00
68939;BMP180;59064;45.294;11.816;2024-02-21T02:05:55;102273.80;;;7.00
68939;BMP180;59064;45.294;11.816;2024-02-21T02:08:21;102272.00;;;7.08
68939;BMP180;59064;45.294;11.816;2024-02-21T02:10:49;102278.00;;;7.10
68939;BMP180;59064;45.294;11.816;2024-02-21T02:13:15;102280.20;;;7.10
68939;BMP180;59064;45.294;11.816;2024-02-21T02:15:41;102277.00;;;7.10
68939;BMP180;59064;45.294;11.816;2024-02-21T02:18:07;102274.80;;;7.14
68939;BMP180;59064;45.294;11.816;2024-02-21T02:20:33;102275.60;;;7.10
68939;BMP180;59064;45.294;11.816;2024-02-21T02:22:59;102277.40;;;7.10
68939;BMP180;59064;45.294;11.816;2024-02-21T02:25:27;102278.80;;;7.10
68939;BMP180;59064;45.294;11.816;2024-02-21T02:27:53;102279.20;;;7.16
68939;BMP180;59064;45.294;11.816;2024-02-21T02:30:19;102277.20;;;7.14
68939;BMP180;59064;45.294;11.816;2024-02-21T02:32:45;102278.60;;;7.10
68939;BMP180;59064;45.294;11.816;2024-02-21T02:35:14;102279.60;;;7.10
68939;BMP180;59064;45.294;11.816;2024-02-21T02:37:39;102282.80;;;7.10
68939;BMP180;59064;45.294;11.816;2024-02-21T02:40:08;102278.80;;;7.10
68939;BMP180;59064;45.294;11.816;2024-02-21T02:42:33;102273.40;;;7.10
68939;BMP180;59064;45.294;11.816;2024-02-21T02:44:59;102273.80;;;7.10
68939;BMP180;59064;45.294;11.816;2024-02-21T02:47:27;102273.80;;;7.10
68939;BMP180;59064;45.294;11.816;2024-02-21T02:49:53;102269.20;;;7.10
68939;BMP180;59064;45.294;11.816;2024-02-21T02:52:18;102265.80;;;7.02
68939;BMP180;59064;45.294;11.816;2024-02-21T02:54:44;102273.00;;;7.00
68939;BMP180;59064;45.294;11.816;2024-02-21T02:57:10;102268.60;;;7.00
68939;BMP180;59064;45.294;11.816;2024-02-21T02:59:35;102260.60;;;6.90
68939;BMP180;59064;45.294;11.816;2024-02-21T03:02:01;102252.80;;;6.86
68939;BMP180;59064;45.294;11.816;2024-02-21T03:04:26;102255.00;;;6.80
68939;BMP180;59064;45.294;11.816;2024-02-21T03:06:52;102259.80;;;6.80
68939;BMP180;59064;45.294;11.816;2024-02-21T03:09:17;102262.40;;;6.70
68939;BMP180;59064;45.294;11.816;2024-02-21T03:11:43;102266.60;;;6.70
68939;BMP180;59064;45.294;11.816;2024-02-21T03:14:10;102265.80;;;6.70
68939;BMP180;59064;45.294;11.816;2024-02-21T03:16:36;102269.60;;;6.60
68939;BMP180;59064;45.294;11.816;2024-02-21T03:19:01;102263.00;;;6.60
68939;BMP180;59064;45.294;11.816;2024-02-21T03:21:27;102260.40;;;6.60
68939;BMP180;59064;45.294;11.816;2024-02-21T03:23:52;102266.80;;;6.60
68939;BMP180;59064;45.294;11.816;2024-02-21T03:26:18;102270.40;;;6.60
68939;BMP180;59064;45.294;11.816;2024-02-21T03:28:44;102267.80;;;6.50
68939;BMP180;59064;45.294;11.816;2024-02-21T03:31:11;102263.00;;;6.50
68939;BMP180;59064;45.294;11.816;2024-02-21T03:33:39;102261.20;;;6.52
68939;BMP180;59064;45.294;11.816;2024-02-21T03:36:05;102265.20;;;6.60
68939;BMP180;59064;45.294;11.816;2024-02-21T03:38:31;102260.80;;;6.60
68939;BMP180;59064;45.294;11.816;2024-02-21T03:40:56;102268.20;;;6.70
68939;BMP180;59064;45.294;11.816;2024-02-21T03:43:22;102265.40;;;6.70
68939;BMP180;59064;45.294;11.816;2024-02-21T03:45:47;102264.40;;;6.70
68939;BMP180;59064;45.294;11.816;2024-02-21T03:48:13;102274.00;;;6.70
68939;BMP180;59064;45.294;11.816;2024-02-21T03:50:39;102272.60;;;6.70
68939;BMP180;59064;45.294;11.816;2024-02-21T03:53:05;102275.80;;;6.70
68939;BMP180;59064;45.294;11.816;2024-02-21T03:55:30;102283.20;;;6.80
68939;BMP180;59064;45.294;11.816;2024-02-21T03:57:55;102287.20;;;6.90
68939;BMP180;59064;45.294;11.816;2024-02-21T04:00:21;102294.00;;;6.92
68939;BMP180;59064;45.294;11.816;2024-02-21T04:02:48;102293.00;;;7.00
68939;BMP180;59064;45.294;11.816;2024-02-21T04:05:16;102297.40;;;7.00
68939;BMP180;59064;45.294;11.816;2024-02-21T04:07:41;102295.80;;;7.02
68939;BMP180;59064;45.294;11.816;2024-02-21T04:10:08;102294.60;;;7.10
68939;BMP180;59064;45.294;11.816;2024-02-21T04:12:33;102300.00;;;7.20
68939;BMP180;59064;45.294;11.816;2024-02-21T04:14:59;102299.00;;;7.20
68939;BMP180;59064;45.294;11.816;2024-02-21T04:17:24;102298.20;;;7.20
68939;BMP180;59064;45.294;11.816;2024-02-21T04:19:50;102292.00;;;7.20
68939;BMP180;59064;45.294;11.816;2024-02-21T04:22:15;102285.20;;;7.28
68939;BMP180;59064;45.294;11.816;2024-02-21T04:24:41;102279.60;;;7.30
68939;BMP180;59064;45.294;11.816;2024-02-21T04:27:06;102275.00;;;7.30
68939;BMP180;59064;45.294;11.816;2024-02-21T04:29:32;102278.40;;;7.30
68939;BMP180;59064;45.294;11.816;2024-02-21T04:31:58;102274.80;;;7.30
68939;BMP180;59064;45.294;11.816;2024-02-21T04:34:23;102279.20;;;7.28
68939;BMP180;59064;45.294;11.816;2024-02-21T04:36:49;102278.40;;;7.22
68939;BMP180;59064;45.294;11.816;2024-02-21T04:39:14;102272.00;;;7.20
68939;BMP180;59064;45.294;11.816;2024-02-21T04:41:40;102269.60;;;7.22
68939;BMP180;59064;45.294;11.816;2024-02-21T04:44:06;102266.80;;;7.24
68939;BMP180;59064;45.294;11.816;2024-02-21T04:46:31;102273.00;;;7.20
68939;BMP180;59064;45.294;11.816;2024-02-21T04:48:57;102274.80;;;7.20
68939;BMP180;59064;45.294;11.816;2024-02-21T04:51:22;102276.60;;;7.20
68939;BMP180;59064;45.294;11.816;2024-02-21T04:53:48;102279.60;;;7.20
68939;BMP180;59064;45.294;11.816;2024-02-21T04:56:13;102280.40;;;7.20
68939;BMP180;59064;45.294;11.816;2024-02-21T04:58:39;102286.00;;;7.20
68939;BMP180;59064;45.294;11.816;2024-02-21T05:01:04;102289.40;;;7.20
68939;BMP180;59064;45.294;11.816;2024-02-21T05:03:30;102293.80;;;7.10
68939;BMP180;59064;45.294;11.816;2024-02-21T05:05:56;102291.40;;;7.10
68939;BMP180;59064;45.294;11.816;2024-02-21T05:08:22;102288.80;;;7.10
68939;BMP180;59064;45.294;11.816;2024-02-21T05:10:47;102287.40;;;7.10
68939;BMP180;59064;45.294;11.816;2024-02-21T05:13:13;102286.60;;;7.10
68939;BMP180;59064;45.294;11.816;2024-02-21T05:15:38;102285.40;;;7.10
68939;BMP180;59064;45.294;11.816;2024-02-21T05:18:03;102289.40;;;7.10
68939;BMP180;59064;45.294;11.816;2024-02-21T05:20:29;102284.80;;;7.10
68939;BMP180;59064;45.294;11.816;2024-02-21T05:22:55;102285.60;;;7.10
68939;BMP180;59064;45.294;11.816;2024-02-21T05:25:20;102282.80;;;7.04
68939;BMP180;59064;45.294;11.816;2024-02-21T05:27:45;102289.20;;;7.00
68939;BMP180;59064;45.294;11.816;2024-02-21T05:30:14;102292.60;;;6.90
68939;BMP180;59064;45.294;11.816;2024-02-21T05:32:40;102291.40;;;6.90
68939;BMP180;59064;45.294;11.816;2024-02-21T05:35:05;102292.60;;;6.80
68939;BMP180;59064;45.294;11.816;2024-02-21T05:37:31;102292.40;;;6.80
68939;BMP180;59064;45.294;11.816;2024-02-21T05:39:56;102295.80;;;6.80
68939;BMP180;59064;45.294;11.816;2024-02-21T05:42:22;102294.60;;;6.80
68939;BMP180;59064;45.294;11.816;2024-02-21T05:44:47;102299.00;;;6.80
68939;BMP180;59064;45.294;11.816;2024-02-21T05:47:13;102296.80;;;6.80
68939;BMP180;59064;45.294;11.816;2024-02-21T05:49:40;102296.40;;;6.90
68939;BMP180;59064;45.294;11.816;2024-02-21T05:52:06;102294.00;;;6.90
68939;BMP180;59064;45.294;11.816;2024-02-21T05:54:32;102293.00;;;6.90
68939;BMP180;59064;45.294;11.816;2024-02-21T05:56:58;102291.80;;;6.90
68939;BMP180;59064;45.294;11.816;2024-02-21T05:59:23;102283.20;;;7.00
68939;BMP180;59064;45.294;11.816;2024-02-21T06:01:56;102288.20;;;7.00
68939;BMP180;59064;45.294;11.816;2024-02-21T06:04:23;102289.20;;;7.00
68939;BMP180;59064;45.294;11.816;2024-02-21T06:06:48;102291.80;;;7.00
68939;BMP180;59064;45.294;11.816;2024-02-21T06:09:14;102287.40;;;7.00
68939;BMP180;59064;45.294;11.816;2024-02-21T06:11:39;102289.40;;;7.00
68939;BMP180;59064;45.294;11.816;2024-02-21T06:14:05;102289.40;;;7.00
68939;BMP180;59064;45.294;11.816;2024-02-21T06:16:30;102286.00;;;7.00
68939;BMP180;59064;45.294;11.816;2024-02-21T06:18:56;102292.60;;;7.00
68939;BMP180;59064;45.294;11.816;2024-02-21T06:21:21;102289.40;;;7.04
68939;BMP180;59064;45.294;11.816;2024-02-21T06:23:47;102291.20;;;7.10
68939;BMP180;59064;45.294;11.816;2024-02-21T06:26:12;102297.80;;;7.10
68939;BMP180;59064;45.294;11.816;2024-02-21T06:28:38;102301.80;;;7.10
68939;BMP180;59064;45.294;11.816;2024-02-21T06:31:03;102298.60;;;7.20
68939;BMP180;59064;45.294;11.816;2024-02-21T06:33:29;102305.80;;;7.20
68939;BMP180;59064;45.294;11.816;2024-02-21T06:35:54;102307.20;;;7.28
68939;BMP180;59064;45.294;11.816;2024-02-21T06:38:20;102307.80;;;7.30
68939;BMP180;59064;45.294;11.816;2024-02-21T06:40:48;102308.00;;;7.30
68939;BMP180;59064;45.294;11.816;2024-02-21T06:43:18;102310.40;;;7.30
68939;BMP180;59064;45.294;11.816;2024-02-21T06:45:45;102310.80;;;7.32
68939;BMP180;59064;45.294;11.816;2024-02-21T06:48:17;102311.20;;;7.40
68939;BMP180;59064;45.294;11.816;2024-02-21T06:50:43;102309.40;;;7.46
68939;BMP180;59064;45.294;11.816;2024-02-21T06:53:08;102303.00;;;7.50
68939;BMP180;59064;45.294;11.816;2024-02-21T06:55:34;102310.80;;;7.60
68939;BMP180;59064;45.294;11.816;2024-02-21T06:57:59;102311.40;;;7.60
68939;BMP180;59064;45.294;11.816;2024-02-21T07:00:25;102311.20;;;7.70
68939;BMP180;59064;45.294;11.816;2024-02-21T07:02:51;102313.20;;;7.80
68939;BMP180;59064;45.294;11.816;2024-02-21T07:05:17;102316.60;;;7.90
68939;BMP180;59064;45.294;11.816;2024-02-21T07:07:42;102316.20;;;7.98
68939;BMP180;59064;45.294;11.816;2024-02-21T07:10:08;102323.40;;;8.10
68939;BMP180;59064;45.294;11.816;2024-02-21T07:12:33;102326.20;;;8.20
68939;BMP180;59064;45.294;11.816;2024-02-21T07:15:00;102322.40;;;8.30
68939;BMP180;59064;45.294;11.816;2024-02-21T07:17:26;102324.00;;;8.40
68939;BMP180;59064;45.294;11.816;2024-02-21T07:19:51;102324.20;;;8.50
68939;BMP180;59064;45.294;11.816;2024-02-21T07:22:17;102324.80;;;8.62
68939;BMP180;59064;45.294;11.816;2024-02-21T07:24:51;102327.20;;;8.80
68939;BMP180;59064;45.294;11.816;2024-02-21T07:27:17;102333.20;;;9.00
68939;BMP180;59064;45.294;11.816;2024-02-21T07:29:42;102337.00;;;9.10
68939;BMP180;59064;45.294;11.816;2024-02-21T07:32:12;102334.60;;;9.30
68939;BMP180;59064;45.294;11.816;2024-02-21T07:34:38;102334.40;;;9.40
68939;BMP180;59064;45.294;11.816;2024-02-21T07:37:03;102337.20;;;9.60
68939;BMP180;59064;45.294;11.816;2024-02-21T07:39:29;102342.20;;;9.74
68939;BMP180;59064;45.294;11.816;2024-02-21T07:41:54;102340.60;;;9.80
68939;BMP180;59064;45.294;11.816;2024-02-21T07:44:20;102337.60;;;9.90
68939;BMP180;59064;45.294;11.816;2024-02-21T07:46:45;102338.20;;;9.98
68939;BMP180;59064;45.294;11.816;2024-02-21T07:49:11;102332.20;;;10.00
68939;BMP180;59064;45.294;11.816;2024-02-21T07:51:36;102332.80;;;10.18
68939;BMP180;59064;45.294;11.816;2024-02-21T07:54:02;102333.40;;;10.30
68939;BMP180;59064;45.294;11.816;2024-02-21T07:56:29;102334.60;;;10.30
68939;BMP180;59064;45.294;11.816;2024-02-21T07:58:55;102333.00;;;10.40
68939;BMP180;59064;45.294;11.816;2024-02-21T08:01:21;102341.80;;;10.50
68939;BMP180;59064;45.294;11.816;2024-02-21T08:03:46;102344.40;;;10.60
68939;BMP180;59064;45.294;11.816;2024-02-21T08:06:13;102346.80;;;10.70
68939;BMP180;59064;45.294;11.816;2024-02-21T08:08:39;102350.80;;;10.74
68939;BMP180;59064;45.294;11.816;2024-02-21T08:11:05;102353.00;;;10.74
68939;BMP180;59064;45.294;11.816;2024-02-21T08:13:30;102356.80;;;10.80
68939;BMP180;59064;45.294;11.816;2024-02-21T08:15:57;102355.00;;;10.90
68939;BMP180;59064;45.294;11.816;2024-02-21T08:18:23;102359.40;;;10.90
68939;BMP180;59064;45.294;11.816;2024-02-21T08:20:49;102364.60;;;10.94
68939;BMP180;59064;45.294;11.816;2024-02-21T08:23:16;102362.00;;;11.00
68939;BMP180;59064;45.294;11.816;2024-02-21T08:25:42;102362.00;;;11.10
68939;BMP180;59064;45.294;11.816;2024-02-21T08:28:08;102360.80;;;11.20
68939;BMP180;59064;45.294;11.816;2024-02-21T08:30:34;102363.00;;;11.28
68939;BMP180;59064;45.294;11.816;2024-02-21T08:32:59;102361.40;;;11.30
68939;BMP180;59064;45.294;11.816;2024-02-21T08:35:25;102355.80;;;11.40
68939;BMP180;59064;45.294;11.816;2024-02-21T08:37:51;102363.40;;;11.50
68939;BMP180;59064;45.294;11.816;2024-02-21T08:40:16;102366.80;;;11.50
68939;BMP180;59064;45.294;11.816;2024-02-21T08:42:47;102366.80;;;11.50
68939;BMP180;59064;45.294;11.816;2024-02-21T08:45:12;102372.20;;;11.62
68939;BMP180;59064;45.294;11.816;2024-02-21T08:47:41;102371.60;;;11.80
68939;BMP180;59064;45.294;11.816;2024-02-21T08:50:08;102376.00;;;11.90
68939;BMP180;59064;45.294;11.816;2024-02-21T08:52:35;102382.00;;;12.00
68939;BMP180;59064;45.294;11.816;2024-02-21T08:55:00;102381.60;;;12.06
68939;BMP180;59064;45.294;11.816;2024-02-21T08:57:27;102375.40;;;12.20
68939;BMP180;59064;45.294;11.816;2024-02-21T08:59:53;102372.60;;;12.30
68939;BMP180;59064;45.294;11.816;2024-02-21T09:02:18;102369.80;;;12.50
68939;BMP180;59064;45.294;11.816;2024-02-21T09:04:44;102366.40;;;12.50
68939;BMP180;59064;45.294;11.816;2024-02-21T09:07:10;102365.00;;;12.60
68939;BMP180;59064;45.294;11.816;2024-02-21T09:09:36;102362.40;;;12.70
68939;BMP180;59064;45.294;11.816;2024-02-21T09:12:07;102363.00;;;12.80
68939;BMP180;59064;45.294;11.816;2024-02-21T09:14:33;102362.20;;;12.90
68939;BMP180;59064;45.294;11.816;2024-02-21T09:16:59;102357.00;;;13.00
68939;BMP180;59064;45.294;11.816;2024-02-21T09:19:25;102357.40;;;13.20
68939;BMP180;59064;45.294;11.816;2024-02-21T09:21:50;102359.60;;;13.34
68939;BMP180;59064;45.294;11.816;2024-02-21T09:24:17;102356.20;;;13.50
68939;BMP180;59064;45.294;11.816;2024-02-21T09:26:43;102355.60;;;13.60
68939;BMP180;59064;45.294;11.816;2024-02-21T09:29:09;102353.00;;;13.70
68939;BMP180;59064;45.294;11.816;2024-02-21T09:31:34;102347.40;;;13.80
68939;BMP180;59064;45.294;11.816;2024-02-21T09:34:00;102346.60;;;13.90
68939;BMP180;59064;45.294;11.816;2024-02-21T09:36:26;102339.80;;;14.00
68939;BMP180;59064;45.294;11.816;2024-02-21T09:38:52;102335.60;;;14.00
68939;BMP180;59064;45.294;11.816;2024-02-21T09:41:27;102339.40;;;14.10
68939;BMP180;59064;45.294;11.816;2024-02-21T09:43:53;102337.40;;;14.20
68939;BMP180;59064;45.294;11.816;2024-02-21T09:46:22;102341.60;;;14.30
68939;BMP180;59064;45.294;11.816;2024-02-21T09:51:30;102342.80;;;14.60
68939;BMP180;59064;45.294;11.816;2024-02-21T09:53:58;102339.60;;;14.56
68939;BMP180;59064;45.294;11.816;2024-02-21T09:56:25;102337.40;;;14.54
68939;BMP180;59064;45.294;11.816;2024-02-21T09:58:50;102344.40;;;14.60
68939;BMP180;59064;45.294;11.816;2024-02-21T10:01:16;102344.00;;;14.70
68939;BMP180;59064;45.294;11.816;2024-02-21T10:03:41;102341.20;;;14.78
68939;BMP180;59064;45.294;11.816;2024-02-21T10:06:09;102345.00;;;14.94
68939;BMP180;59064;45.294;11.816;2024-02-21T10:08:34;102345.40;;;15.10
68939;BMP180;59064;45.294;11.816;2024-02-21T10:11:00;102342.80;;;15.10
68939;BMP180;59064;45.294;11.816;2024-02-21T10:13:28;102341.40;;;15.00
68939;BMP180;59064;45.294;11.816;2024-02-21T10:16:04;102344.60;;;15.08
68939;BMP180;59064;45.294;11.816;2024-02-21T10:18:30;102344.40;;;15.10
68939;BMP180;59064;45.294;11.816;2024-02-21T10:21:05;102343.40;;;15.10
68939;BMP180;59064;45.294;11.816;2024-02-21T10:23:49;102338.20;;;15.10
68939;BMP180;59064;45.294;11.816;2024-02-21T10:26:18;102334.60;;;15.30
68939;BMP180;59064;45.294;11.816;2024-02-21T10:28:44;102335.60;;;15.40
68939;BMP180;59064;45.294;11.816;2024-02-21T10:34:19;102331.60;;;15.20
68939;BMP180;59064;45.294;11.816;2024-02-21T10:36:44;102326.00;;;15.20
68939;BMP180;59064;45.294;11.816;2024-02-21T10:39:10;102328.20;;;15.36
68939;BMP180;59064;45.294;11.816;2024-02-21T10:41:36;102329.40;;;15.44
68939;BMP180;59064;45.294;11.816;2024-02-21T10:44:05;102324.20;;;15.48
68939;BMP180;59064;45.294;11.816;2024-02-21T10:46:32;102330.40;;;15.78
68939;BMP180;59064;45.294;11.816;2024-02-21T10:49:10;102331.20;;;16.00
68939;BMP180;59064;45.294;11.816;2024-02-21T10:51:37;102331.40;;;16.24
68939;BMP180;59064;45.294;11.816;2024-02-21T10:57:10;102323.40;;;16.80
68939;BMP180;59064;45.294;11.816;2024-02-21T10:59:37;102321.00;;;16.90
68939;BMP180;59064;45.294;11.816;2024-02-21T11:02:03;102316.00;;;16.92
68939;BMP180;59064;45.294;11.816;2024-02-21T11:04:29;102317.80;;;16.96
68939;BMP180;59064;45.294;11.816;2024-02-21T11:06:57;102316.80;;;17.10
68939;BMP180;59064;45.294;11.816;2024-02-21T11:09:30;102315.00;;;17.36
68939;BMP180;59064;45.294;11.816;2024-02-21T11:12:02;102313.20;;;17.30
68939;BMP180;59064;45.294;11.816;2024-02-21T11:14:29;102305.80;;;17.44
68939;BMP180;59064;45.294;11.816;2024-02-21T11:16:58;102301.00;;;17.62
68939;BMP180;59064;45.294;11.816;2024-02-21T11:19:27;102295.80;;;17.92
68939;BMP180;59064;45.294;11.816;2024-02-21T11:21:55;102289.60;;;18.20
68939;BMP180;59064;45.294;11.816;2024-02-21T11:26:54;102271.60;;;18.62
68939;BMP180;59064;45.294;11.816;2024-02-21T11:29:24;102266.20;;;18.90
68939;BMP180;59064;45.294;11.816;2024-02-21T11:31:54;102265.20;;;19.18
68939;BMP180;59064;45.294;11.816;2024-02-21T11:34:20;102263.00;;;19.10
68939;BMP180;59064;45.294;11.816;2024-02-21T11:36:47;102258.60;;;19.10
68939;BMP180;59064;45.294;11.816;2024-02-21T11:39:25;102253.80;;;19.42
68939;BMP180;59064;45.294;11.816;2024-02-21T11:42:04;102249.80;;;19.50
68939;BMP180;59064;45.294;11.816;2024-02-21T11:44:31;102249.60;;;19.82
68939;BMP180;59064;45.294;11.816;2024-02-21T11:46:57;102246.80;;;20.00
68939;BMP180;59064;45.294;11.816;2024-02-21T11:49:29;102241.80;;;19.90
68939;BMP180;59064;45.294;11.816;2024-02-21T11:52:00;102237.20;;;19.86
68939;BMP180;59064;45.294;11.816;2024-02-21T11:54:27;102228.40;;;19.90
68939;BMP180;59064;45.294;11.816;2024-02-21T11:56:53;102223.80;;;20.18
68939;BMP180;59064;45.294;11.816;2024-02-21T11:59:18;102220.80;;;20.20
68939;BMP180;59064;45.294;11.816;2024-02-21T12:01:44;102218.60;;;20.28
68939;BMP180;59064;45.294;11.816;2024-02-21T12:04:10;102215.00;;;20.20
68939;BMP180;59064;45.294;11.816;2024-02-21T12:06:35;102210.20;;;20.12
68939;BMP180;59064;45.294;11.816;2024-02-21T12:09:01;102209.00;;;20.20
68939;BMP180;59064;45.294;11.816;2024-02-21T12:11:26;102203.80;;;20.20
68939;BMP180;59064;45.294;11.816;2024-02-21T12:14:03;102198.60;;;19.98
68939;BMP180;59064;45.294;11.816;2024-02-21T12:16:30;102192.60;;;19.80
68939;BMP180;59064;45.294;11.816;2024-02-21T12:18:57;102192.60;;;19.90
68939;BMP180;59064;45.294;11.816;2024-02-21T12:21:33;102194.20;;;20.30
68939;BMP180;59064;45.294;11.816;2024-02-21T12:26:38;102192.80;;;20.96
68939;BMP180;59064;45.294;11.816;2024-02-21T12:29:03;102198.00;;;21.00
68939;BMP180;59064;45.294;11.816;2024-02-21T12:31:30;102194.20;;;21.00
68939;BMP180;59064;45.294;11.816;2024-02-21T12:33:55;102187.40;;;21.10
68939;BMP180;59064;45.294;11.816;2024-02-21T12:36:24;102186.60;;;21.20
68939;BMP180;59064;45.294;11.816;2024-02-21T12:38:49;102181.20;;;21.30
68939;BMP180;59064;45.294;11.816;2024-02-21T12:41:15;102176.80;;;21.40
68939;BMP180;59064;45.294;11.816;2024-02-21T12:43:41;102174.40;;;21.10
68939;BMP180;59064;45.294;11.816;2024-02-21T12:46:06;102169.60;;;20.70
68939;BMP180;59064;45.294;11.816;2024-02-21T12:48:34;102167.80;;;20.76
68939;BMP180;59064;45.294;11.816;2024-02-21T12:51:00;102159.20;;;20.58
68939;BMP180;59064;45.294;11.816;2024-02-21T12:53:25;102156.80;;;20.50
68939;BMP180;59064;45.294;11.816;2024-02-21T12:55:51;102154.80;;;20.42
68939;BMP180;59064;45.294;11.816;2024-02-21T12:58:17;102147.60;;;20.58
68939;BMP180;59064;45.294;11.816;2024-02-21T13:00:42;102143.60;;;20.80
68939;BMP180;59064;45.294;11.816;2024-02-21T13:03:09;102138.00;;;20.90
68939;BMP180;59064;45.294;11.816;2024-02-21T13:05:36;102129.00;;;20.80
68939;BMP180;59064;45.294;11.816;2024-02-21T13:08:01;102119.60;;;20.70
68939;BMP180;59064;45.294;11.816;2024-02-21T13:10:27;102112.80;;;20.70
68939;BMP180;59064;45.294;11.816;2024-02-21T13:12:53;102110.40;;;20.66
68939;BMP180;59064;45.294;11.816;2024-02-21T13:15:19;102106.00;;;20.58
68939;BMP180;59064;45.294;11.816;2024-02-21T13:17:45;102104.40;;;20.50
68939;BMP180;59064;45.294;11.816;2024-02-21T13:20:11;102105.80;;;20.50
68939;BMP180;59064;45.294;11.816;2024-02-21T13:22:37;102100.60;;;20.50
68939;BMP180;59064;45.294;11.816;2024-02-21T13:25:04;102095.20;;;20.70
68939;BMP180;59064;45.294;11.816;2024-02-21T13:27:30;102092.00;;;20.70
68939;BMP180;59064;45.294;11.816;2024-02-21T13:29:55;102089.60;;;20.70
68939;BMP180;59064;45.294;11.816;2024-02-21T13:32:21;102090.00;;;20.90
68939;BMP180;59064;45.294;11.816;2024-02-21T13:34:47;102088.40;;;21.10
68939;BMP180;59064;45.294;11.816;2024-02-21T13:37:12;102085.80;;;21.20
68939;BMP180;59064;45.294;11.816;2024-02-21T13:39:39;102086.20;;;21.12
68939;BMP180;59064;45.294;11.816;2024-02-21T13:42:05;102082.00;;;21.14
68939;BMP180;59064;45.294;11.816;2024-02-21T13:44:31;102075.00;;;21.14
68939;BMP180;59064;45.294;11.816;2024-02-21T13:46:57;102072.60;;;21.20
68939;BMP180;59064;45.294;11.816;2024-02-21T13:49:24;102067.20;;;21.10
68939;BMP180;59064;45.294;11.816;2024-02-21T13:51:49;102058.80;;;20.90
68939;BMP180;59064;45.294;11.816;2024-02-21T13:54:15;102055.40;;;20.96
68939;BMP180;59064;45.294;11.816;2024-02-21T13:56:47;102054.40;;;20.94
68939;BMP180;59064;45.294;11.816;2024-02-21T13:59:13;102051.20;;;21.00
68939;BMP180;59064;45.294;11.816;2024-02-21T14:01:39;102047.60;;;20.90